createdAt,value
2023-10-04T00:00:03.689Z,1.70
2023-10-04T00:03:13.551Z,1.80
2023-10-04T00:06:24.718Z,3.70
2023-10-04T00:09:34.989Z,3.15
2023-10-04T00:12:44.498Z,2.90
2023-10-04T00:15:55.147Z,2.80
2023-10-04T00:19:07.348Z,3.47
2023-10-04T00:22:15.034Z,1.93
2023-10-04T00:25:26.282Z,2.80
2023-10-04T00:28:36.085Z,1.95
2023-10-04T00:31:46.765Z,2.25
2023-10-04T00:34:56.783Z,2.02
2023-10-04T00:38:08.852Z,2.30
2023-10-04T00:41:18.836Z,2.60
2023-10-04T00:44:27.235Z,2.50
2023-10-04T00:47:36.894Z,3.42
2023-10-04T00:50:47.861Z,2.97
2023-10-04T00:53:57.289Z,2.12
2023-10-04T00:57:13.862Z,2.58
2023-10-04T01:00:22.140Z,2.05
2023-10-04T01:03:33.656Z,2.22
2023-10-04T01:06:43.104Z,2.60
2023-10-04T01:09:53.134Z,2.55
2023-10-04T01:13:02.576Z,2.52
2023-10-04T01:16:18.347Z,2.00
2023-10-04T01:19:31.059Z,2.30
2023-10-04T01:22:48.064Z,2.55
2023-10-04T01:25:57.353Z,2.30
2023-10-04T01:32:29.807Z,4.90
2023-10-04T01:35:42.498Z,3.37
2023-10-04T01:38:53.838Z,3.08
2023-10-04T01:42:03.002Z,2.37
2023-10-04T01:45:14.203Z,2.95
2023-10-04T01:48:29.307Z,2.47
2023-10-04T01:51:37.976Z,4.45
2023-10-04T01:55:00.996Z,3.33
2023-10-04T01:58:44.728Z,3.22
2023-10-04T02:01:52.695Z,3.70
2023-10-04T02:05:07.500Z,3.27
2023-10-04T02:08:17.803Z,6.05
2023-10-04T02:11:27.295Z,3.10
2023-10-04T02:14:35.791Z,2.27
2023-10-04T02:17:47.625Z,3.25
2023-10-04T02:20:58.047Z,2.62
2023-10-04T02:24:09.555Z,7.55
2023-10-04T02:27:19.958Z,2.22
2023-10-04T02:30:28.549Z,3.95
2023-10-04T02:33:39.225Z,5.03
2023-10-04T02:36:50.258Z,2.65
2023-10-04T02:40:01.560Z,3.15
2023-10-04T02:43:14.127Z,2.87
2023-10-04T02:46:26.529Z,2.77
2023-10-04T02:49:39.082Z,2.92
2023-10-04T02:52:47.161Z,1.72
2023-10-04T02:55:59.672Z,5.40
2023-10-04T02:59:09.712Z,3.05
2023-10-04T03:02:22.464Z,3.50
2023-10-04T03:05:33.227Z,5.80
2023-10-04T03:08:41.735Z,2.35
2023-10-04T03:11:59.383Z,2.00
2023-10-04T03:15:09.831Z,2.30
2023-10-04T03:18:19.847Z,1.90
2023-10-04T03:21:36.054Z,2.72
2023-10-04T03:24:46.941Z,3.58
2023-10-04T03:27:55.517Z,1.55
2023-10-04T03:31:10.541Z,3.27
2023-10-04T03:34:20.931Z,3.02
2023-10-04T03:37:30.696Z,1.82
2023-10-04T03:40:41.991Z,1.70
2023-10-04T03:43:56.131Z,1.80
2023-10-04T03:47:05.288Z,3.77
2023-10-04T03:50:17.738Z,2.98
2023-10-04T03:53:28.247Z,2.92
2023-10-04T03:56:35.883Z,2.27
2023-10-04T03:59:47.842Z,1.62
2023-10-04T04:02:59.241Z,1.77
2023-10-04T04:06:07.370Z,2.60
2023-10-04T04:09:18.936Z,2.33
2023-10-04T04:12:27.002Z,2.08
2023-10-04T04:15:40.291Z,2.08
2023-10-04T04:18:54.186Z,2.00
2023-10-04T04:22:04.577Z,2.17
2023-10-04T04:25:15.673Z,2.08
2023-10-04T04:28:26.783Z,2.27
2023-10-04T04:31:40.796Z,1.65
2023-10-04T04:34:52.385Z,2.50
2023-10-04T04:38:02.825Z,1.70
2023-10-04T04:41:15.789Z,1.70
2023-10-04T04:47:38.965Z,1.77
2023-10-04T04:50:51.339Z,1.80
2023-10-04T04:53:59.170Z,1.92
2023-10-04T04:57:12.592Z,1.95
2023-10-04T05:00:36.857Z,3.45
2023-10-04T05:03:49.929Z,1.92
2023-10-04T05:10:17.417Z,1.98
2023-10-04T05:13:28.408Z,2.37
2023-10-04T05:16:37.876Z,1.90
2023-10-04T05:19:47.924Z,1.70
2023-10-04T05:22:55.494Z,2.37
2023-10-04T05:26:05.472Z,2.10
2023-10-04T05:29:17.188Z,2.05
2023-10-04T05:32:27.432Z,2.10
2023-10-04T05:35:37.181Z,2.20
2023-10-04T05:38:48.988Z,2.27
2023-10-04T05:41:58.735Z,2.35
2023-10-04T05:45:11.666Z,1.65
2023-10-04T05:48:21.606Z,2.25
2023-10-04T05:51:29.929Z,2.20
2023-10-04T05:54:40.561Z,1.95
2023-10-04T05:57:51.802Z,1.90
2023-10-04T06:01:02.735Z,2.55
2023-10-04T06:04:12.859Z,2.10
2023-10-04T06:07:24.049Z,1.72
2023-10-04T06:10:35.517Z,1.67
2023-10-04T06:13:45.738Z,2.27
2023-10-04T06:16:55.589Z,2.08
2023-10-04T06:20:11.685Z,2.37
2023-10-04T06:23:19.652Z,2.12
2023-10-04T06:26:29.664Z,1.77
2023-10-04T06:29:39.779Z,2.80
2023-10-04T06:32:51.367Z,1.82
2023-10-04T06:36:02.113Z,1.75
2023-10-04T06:39:10.332Z,2.15
2023-10-04T06:42:19.968Z,2.35
2023-10-04T06:45:30.146Z,2.15
2023-10-04T06:48:38.276Z,2.02
2023-10-04T06:51:47.339Z,1.98
2023-10-04T06:54:55.705Z,2.08
2023-10-04T06:58:08.576Z,1.82
2023-10-04T07:01:18.016Z,2.30
2023-10-04T07:04:29.896Z,1.72
2023-10-04T07:07:40.008Z,2.55
2023-10-04T07:10:48.873Z,2.33
2023-10-04T07:14:06.282Z,1.80
2023-10-04T07:17:18.761Z,3.08
2023-10-04T07:20:27.176Z,1.80
2023-10-04T07:23:42.913Z,2.92
2023-10-04T07:26:47.298Z,1.75
2023-10-04T07:29:58.349Z,1.92
2023-10-04T07:33:09.953Z,1.72
2023-10-04T07:36:17.783Z,2.27
2023-10-04T07:39:25.947Z,2.35
2023-10-04T07:42:34.203Z,2.12
2023-10-04T07:45:43.688Z,2.20
2023-10-04T07:48:53.034Z,2.45
2023-10-04T07:52:00.592Z,2.02
2023-10-04T07:55:17.382Z,2.25
2023-10-04T07:58:26.679Z,2.30
2023-10-04T08:01:37.251Z,1.92
2023-10-04T08:04:47.135Z,2.27
2023-10-04T08:07:55.225Z,2.62
2023-10-04T08:11:05.290Z,2.60
2023-10-04T08:14:17.102Z,2.37
2023-10-04T08:17:25.807Z,1.72
2023-10-04T08:20:38.518Z,2.08
2023-10-04T08:23:51.308Z,2.35
2023-10-04T08:30:05.634Z,2.12
2023-10-04T08:33:16.823Z,1.80
2023-10-04T08:39:34.667Z,2.33
2023-10-04T08:42:43.031Z,2.33
2023-10-04T08:45:51.129Z,2.08
2023-10-04T08:49:00.711Z,1.57
2023-10-04T08:52:12.555Z,2.98
2023-10-04T08:55:22.391Z,2.60
2023-10-04T08:58:30.533Z,1.85
2023-10-04T09:01:41.678Z,3.10
2023-10-04T09:04:53.093Z,1.95
2023-10-04T09:08:00.787Z,2.87
2023-10-04T09:11:14.017Z,2.22
2023-10-04T09:14:23.349Z,3.50
2023-10-04T09:17:31.928Z,2.70
2023-10-04T09:20:40.527Z,1.60
2023-10-04T09:23:53.811Z,2.52
2023-10-04T09:27:02.824Z,1.67
2023-10-04T09:30:28.008Z,2.12
2023-10-04T09:33:36.315Z,1.95
2023-10-04T09:36:44.203Z,2.20
2023-10-04T09:39:54.119Z,2.50
2023-10-04T09:43:07.020Z,2.08
2023-10-04T09:46:16.530Z,2.65
2023-10-04T09:49:25.276Z,1.90
2023-10-04T09:52:38.620Z,1.50
2023-10-04T09:58:55.371Z,1.92
2023-10-04T10:02:05.646Z,1.72
2023-10-04T10:05:19.720Z,1.60
2023-10-04T10:08:33.041Z,2.00
2023-10-04T10:11:47.433Z,1.70
2023-10-04T10:14:58.864Z,2.58
2023-10-04T10:18:09.009Z,2.17
2023-10-04T10:21:21.176Z,2.42
2023-10-04T10:24:32.612Z,2.22
2023-10-04T10:27:40.560Z,2.25
2023-10-04T10:30:48.631Z,3.35
2023-10-04T10:33:57.616Z,1.72
2023-10-04T10:37:28.654Z,1.75
2023-10-04T10:40:39.694Z,2.87
2023-10-04T10:44:27.617Z,2.65
2023-10-04T10:47:56.969Z,2.55
2023-10-04T10:50:50.433Z,2.22
2023-10-04T10:53:59.732Z,1.45
2023-10-04T10:57:12.431Z,2.15
2023-10-04T11:00:25.886Z,1.87
2023-10-04T11:03:35.706Z,2.17
2023-10-04T11:06:45.785Z,2.22
2023-10-04T11:09:56.829Z,2.60
2023-10-04T11:13:10.528Z,2.45
2023-10-04T11:16:21.655Z,2.55
2023-10-04T11:19:35.248Z,1.82
2023-10-04T11:22:44.721Z,2.47
2023-10-04T11:25:54.505Z,2.30
2023-10-04T11:29:08.286Z,3.90
2023-10-04T11:32:17.827Z,2.60
2023-10-04T11:35:29.915Z,3.30
2023-10-04T11:38:38.764Z,2.70
2023-10-04T11:41:52.941Z,4.08
2023-10-04T11:45:04.099Z,12.18
2023-10-04T11:48:15.445Z,11.88
2023-10-04T11:51:39.217Z,9.58
2023-10-04T11:54:48.616Z,9.78
2023-10-04T11:57:57.286Z,9.93
2023-10-04T12:01:14.638Z,13.00
2023-10-04T12:04:22.373Z,10.55
2023-10-04T12:07:30.931Z,11.22
2023-10-04T12:10:41.122Z,10.13
2023-10-04T12:13:49.609Z,8.43
2023-10-04T12:16:58.436Z,10.53
2023-10-04T12:20:07.861Z,7.62
2023-10-04T12:23:17.604Z,7.55
2023-10-04T12:26:29.400Z,7.33
2023-10-04T12:29:39.879Z,7.33
2023-10-04T12:32:50.818Z,7.55
2023-10-04T12:35:59.075Z,7.62
2023-10-04T12:39:10.187Z,5.75
2023-10-04T12:42:17.910Z,4.97
2023-10-04T12:45:31.600Z,5.97
2023-10-04T12:48:44.581Z,8.08
2023-10-04T12:54:58.929Z,6.00
2023-10-04T12:58:06.906Z,5.22
2023-10-04T13:01:18.233Z,5.20
2023-10-04T13:04:28.401Z,5.45
2023-10-04T13:07:42.289Z,5.87
2023-10-04T13:10:53.476Z,6.15
2023-10-04T13:14:01.305Z,7.90
2023-10-04T13:17:09.072Z,5.40
2023-10-04T13:20:20.041Z,5.70
2023-10-04T13:23:30.409Z,5.87
2023-10-04T13:26:38.870Z,4.50
2023-10-04T13:29:47.660Z,5.75
2023-10-04T13:33:03.279Z,4.60
2023-10-04T13:36:16.981Z,5.35
2023-10-04T13:39:29.059Z,4.92
2023-10-04T13:42:40.472Z,4.43
2023-10-04T13:45:49.761Z,5.03
2023-10-04T13:49:02.798Z,3.98
2023-10-04T13:52:12.351Z,4.15
2023-10-04T13:55:23.550Z,4.95
2023-10-04T13:58:36.046Z,4.33
2023-10-04T14:01:47.015Z,5.25
2023-10-04T14:05:01.788Z,4.22
2023-10-04T14:08:16.928Z,4.40
2023-10-04T14:11:28.910Z,4.35
2023-10-04T14:14:40.134Z,3.60
2023-10-04T14:17:51.630Z,3.37
2023-10-04T14:21:00.488Z,3.70
2023-10-04T14:24:10.363Z,4.30
2023-10-04T14:27:19.441Z,4.80
2023-10-04T14:30:28.798Z,5.90
2023-10-04T14:33:36.757Z,3.75
2023-10-04T14:36:45.175Z,3.65
2023-10-04T14:39:57.070Z,3.47
2023-10-04T14:43:18.264Z,3.30
2023-10-04T14:46:27.170Z,3.15
2023-10-04T14:49:37.493Z,3.58
2023-10-04T14:52:50.932Z,2.90
2023-10-04T14:56:06.151Z,3.00
2023-10-04T14:59:17.948Z,2.10
2023-10-04T15:02:26.902Z,2.37
2023-10-04T15:05:34.982Z,3.25
2023-10-04T15:08:46.574Z,2.22
2023-10-04T15:11:58.700Z,2.80
2023-10-04T15:15:12.434Z,2.25
2023-10-04T15:18:20.192Z,3.17
2023-10-04T15:21:31.364Z,2.67
2023-10-04T15:24:43.030Z,2.47
2023-10-04T15:27:54.542Z,2.37
2023-10-04T15:31:04.614Z,3.37
2023-10-04T15:34:12.258Z,2.75
2023-10-04T15:37:21.425Z,3.47
2023-10-04T15:40:32.778Z,2.80
2023-10-04T15:43:40.365Z,2.85
2023-10-04T15:46:51.992Z,2.55
2023-10-04T15:50:00.325Z,2.92
2023-10-04T15:53:08.423Z,2.40
2023-10-04T15:56:16.188Z,1.85
2023-10-04T15:59:27.627Z,2.08
2023-10-04T16:02:43.264Z,2.60
2023-10-04T16:05:54.561Z,2.95
2023-10-04T16:09:05.179Z,5.42
2023-10-04T16:12:16.731Z,4.20
2023-10-04T16:15:27.400Z,5.12
2023-10-04T16:18:37.744Z,4.67
2023-10-04T16:21:49.343Z,6.78
2023-10-04T16:24:58.577Z,10.38
2023-10-04T16:28:07.547Z,8.75
2023-10-04T16:31:16.749Z,6.20
2023-10-04T16:34:28.135Z,8.03
2023-10-04T16:37:36.165Z,4.20
2023-10-04T16:40:44.091Z,3.85
2023-10-04T16:43:55.421Z,4.78
2023-10-04T16:47:15.074Z,3.22
2023-10-04T16:50:40.336Z,3.92
2023-10-04T16:54:10.132Z,3.25
2023-10-04T16:57:47.546Z,3.77
2023-10-04T17:01:13.035Z,3.95
2023-10-04T17:04:41.704Z,5.03
2023-10-04T17:07:53.449Z,3.30
2023-10-04T17:11:01.231Z,3.17
2023-10-04T17:14:13.237Z,2.20
2023-10-04T17:17:22.898Z,2.47
2023-10-04T17:20:41.051Z,2.77
2023-10-04T17:23:50.682Z,2.40
2023-10-04T17:26:58.854Z,2.67
2023-10-04T17:30:08.729Z,2.62
2023-10-04T17:33:16.546Z,2.47
2023-10-04T17:36:24.994Z,3.25
2023-10-04T17:39:35.500Z,2.27
2023-10-04T17:42:43.669Z,2.70
2023-10-04T17:45:53.162Z,2.37
2023-10-04T17:49:01.640Z,2.45
2023-10-04T17:52:16.029Z,3.42
2023-10-04T17:55:25.732Z,3.72
2023-10-04T17:58:34.356Z,2.70
2023-10-04T18:01:43.659Z,2.70
2023-10-04T18:04:51.819Z,2.87
2023-10-04T18:08:09.076Z,2.50
2023-10-04T18:11:18.431Z,2.47
2023-10-04T18:14:28.587Z,2.42
2023-10-04T18:17:41.664Z,2.17
2023-10-04T18:20:50.642Z,2.95
2023-10-04T18:23:58.265Z,2.17
2023-10-04T18:27:08.153Z,2.17
2023-10-04T18:30:17.718Z,1.92
2023-10-04T18:33:31.347Z,1.87
2023-10-04T18:36:42.568Z,2.35
2023-10-04T18:39:49.223Z,2.12
2023-10-04T18:42:59.738Z,1.80
2023-10-04T18:46:07.872Z,2.17
2023-10-04T18:49:20.343Z,2.55
2023-10-04T18:52:29.725Z,1.92
2023-10-04T18:55:42.559Z,2.77
2023-10-04T18:58:53.294Z,1.98
2023-10-04T19:02:03.734Z,2.27
2023-10-04T19:05:17.459Z,1.72
2023-10-04T19:08:27.871Z,5.83
2023-10-04T19:11:39.037Z,1.87
2023-10-04T19:14:47.018Z,2.25
2023-10-04T19:17:55.251Z,2.20
2023-10-04T19:21:05.195Z,2.30
2023-10-04T19:24:13.468Z,2.35
2023-10-04T19:27:24.206Z,2.17
2023-10-04T19:30:36.948Z,1.75
2023-10-04T19:33:45.666Z,1.87
2023-10-04T19:36:57.495Z,1.95
2023-10-04T19:40:05.955Z,2.95
2023-10-04T19:43:13.924Z,1.40
2023-10-04T19:46:25.344Z,1.72
2023-10-04T19:49:35.656Z,1.90
2023-10-04T19:52:43.536Z,2.20
2023-10-04T19:55:53.024Z,2.40
2023-10-04T19:59:07.769Z,2.15
2023-10-04T20:02:17.875Z,3.10
2023-10-04T20:05:36.636Z,2.10
2023-10-04T20:08:48.550Z,2.55
2023-10-04T20:12:08.479Z,2.50
2023-10-04T20:15:16.752Z,3.60
2023-10-04T20:18:27.691Z,9.03
2023-10-04T20:21:54.379Z,3.92
2023-10-04T20:25:05.616Z,3.35
2023-10-04T20:28:16.011Z,2.65
2023-10-04T20:31:25.552Z,2.98
2023-10-04T20:34:34.989Z,2.40
2023-10-04T20:37:42.797Z,2.58
2023-10-04T20:41:04.187Z,2.25
2023-10-04T20:44:24.190Z,2.25
2023-10-04T20:47:48.950Z,1.77
2023-10-04T20:51:02.826Z,2.45
2023-10-04T20:54:13.338Z,1.65
2023-10-04T20:57:24.551Z,3.92
2023-10-04T21:00:37.466Z,2.60
2023-10-04T21:06:53.914Z,2.25
2023-10-04T21:10:03.827Z,2.45
2023-10-04T21:13:14.882Z,2.15
2023-10-04T21:16:30.708Z,1.80
2023-10-04T21:19:49.411Z,2.77
2023-10-04T21:23:03.247Z,2.50
2023-10-04T21:26:13.310Z,2.75
2023-10-04T21:29:22.199Z,2.22
2023-10-04T21:32:41.867Z,3.77
2023-10-04T21:35:52.630Z,2.20
2023-10-04T21:39:07.485Z,1.98
2023-10-04T21:42:17.350Z,1.87
2023-10-04T21:45:27.472Z,2.22
2023-10-04T21:48:36.912Z,2.27
2023-10-04T21:51:52.534Z,3.27
2023-10-04T21:55:06.828Z,3.45
2023-10-04T21:58:18.959Z,2.15
2023-10-04T22:01:27.684Z,2.40
2023-10-04T22:04:37.957Z,2.08
2023-10-04T22:07:47.971Z,2.45
2023-10-04T22:10:57.629Z,2.37
2023-10-04T22:14:10.829Z,2.33
2023-10-04T22:17:23.387Z,2.22
2023-10-04T22:20:31.772Z,2.20
2023-10-04T22:23:45.228Z,2.22
2023-10-04T22:26:56.637Z,2.12
2023-10-04T22:30:12.548Z,2.05
2023-10-04T22:33:25.433Z,2.17
2023-10-04T22:36:38.251Z,3.05
2023-10-04T22:39:46.502Z,3.10
2023-10-04T22:42:58.738Z,2.27
2023-10-04T22:46:10.885Z,4.35
2023-10-04T22:49:19.994Z,2.07
2023-10-04T22:52:28.936Z,2.22
2023-10-04T22:55:38.073Z,1.80
2023-10-04T22:58:46.440Z,3.17
2023-10-04T23:01:59.071Z,3.08
2023-10-04T23:05:14.829Z,2.83
2023-10-04T23:08:28.495Z,4.17
2023-10-04T23:11:41.144Z,2.10
2023-10-04T23:14:55.900Z,2.12
2023-10-04T23:18:16.515Z,1.92
2023-10-04T23:21:33.121Z,3.15
2023-10-04T23:24:47.803Z,2.58
2023-10-04T23:28:02.206Z,2.33
2023-10-04T23:31:16.743Z,3.17
2023-10-04T23:34:33.207Z,2.72
2023-10-04T23:37:50.842Z,1.77
2023-10-04T23:41:05.661Z,2.60
2023-10-04T23:44:23.377Z,2.40
2023-10-04T23:47:37.398Z,1.98
2023-10-04T23:50:52.132Z,3.55
2023-10-04T23:54:23.675Z,2.37
2023-10-04T23:57:39.334Z,2.80
